Time;durP1;ratioP1;P1;durP2;ratioP2;P2;SDS_P1;SDS_P2;PMS_P1;PMS_P2;Temp;Humidity;BMP_temperature;BMP_pressure;BME280_temperature;BME280_humidity;BME280_pressure;Samples;Min_cycle;Max_cycle;Signal;HPM_P1;HPM_P2
2022/04/20 00:01:58;;;;;;;7.32;4.03;;;;;;;9.57;nan;101794.84;4985530;28;20541;-61
2022/04/20 00:04:23;;;;;;;7.65;3.78;;;;;;;9.54;nan;101788.06;4986139;28;20377;-62
2022/04/20 00:06:49;;;;;;;9.48;4.25;;;;;;;9.56;nan;101787.84;4985092;28;20038;-61
2022/04/20 00:09:14;;;;;;;9.98;4.40;;;;;;;9.54;nan;101789.91;4983783;28;20038;-62
2022/04/20 00:11:40;;;;;;;8.77;4.20;;;;;;;9.55;nan;101789.69;4982252;28;20149;-61
2022/04/20 00:14:05;;;;;;;8.75;4.07;;;;;;;9.53;nan;101794.44;4982946;28;20424;-61
2022/04/20 00:16:31;;;;;;;9.15;3.90;;;;;;;9.54;nan;101801.44;4983144;28;20041;-61
2022/04/20 00:18:56;;;;;;;7.30;3.75;;;;;;;9.51;nan;101798.34;4985257;28;20112;-60
2022/04/20 00:21:22;;;;;;;7.25;3.92;;;;;;;9.51;nan;101801.84;4984408;28;20595;-62
2022/04/20 00:23:48;;;;;;;9.88;4.35;;;;;;;9.50;nan;101802.06;4984278;28;20100;-62
2022/04/20 00:26:13;;;;;;;7.05;3.63;;;;;;;9.48;nan;101804.97;4983915;28;20034;-61
2022/04/20 00:28:39;;;;;;;6.43;3.92;;;;;;;9.49;nan;101798.56;4983873;28;20038;-61
2022/04/20 00:31:04;;;;;;;5.43;3.65;;;;;;;9.49;nan;101798.56;4981832;28;20038;-62
2022/04/20 00:33:30;;;;;;;8.32;4.43;;;;;;;9.50;nan;101794.03;4979492;28;20030;-62
2022/04/20 00:35:55;;;;;;;9.48;4.15;;;;;;;9.49;nan;101789.72;4976494;28;20585;-62
2022/04/20 00:38:21;;;;;;;8.27;4.13;;;;;;;9.47;nan;101794.47;4977326;28;20112;-62
2022/04/20 00:40:50;;;;;;;8.40;4.35;;;;;;;9.48;nan;101796.13;4978929;28;20078;-61
2022/04/20 00:43:16;;;;;;;8.45;3.92;;;;;;;9.49;nan;101793.22;4976355;28;20117;-61
2022/04/20 00:45:42;;;;;;;7.82;4.30;;;;;;;9.48;nan;101791.59;4978407;28;20123;-61
2022/04/20 00:48:11;;;;;;;5.95;3.58;;;;;;;9.49;nan;101798.56;4977083;28;20125;-61
2022/04/20 00:50:41;;;;;;;5.80;3.83;;;;;;;9.46;nan;101804.34;4983041;28;20030;-61
2022/04/20 00:53:07;;;;;;;8.73;4.40;;;;;;;9.46;nan;101806.22;4980183;28;20037;-61
2022/04/20 00:55:32;;;;;;;11.15;4.70;;;;;;;9.43;nan;101810.13;4983197;28;20022;-61
2022/04/20 00:57:58;;;;;;;7.03;4.20;;;;;;;9.40;nan;101813.25;4984676;28;20070;-61
2022/04/20 01:00:27;;;;;;;6.55;3.60;;;;;;;9.36;nan;101815.53;4983093;28;20026;-62
2022/04/20 01:02:53;;;;;;;6.78;3.75;;;;;;;9.33;nan;101818.63;4984518;28;20087;-62
2022/04/20 01:05:19;;;;;;;8.15;3.92;;;;;;;9.32;nan;101819.66;4984384;28;20034;-62
2022/04/20 01:07:45;;;;;;;7.47;3.80;;;;;;;9.28;nan;101814.94;4982215;28;20033;-62
2022/04/20 01:10:10;;;;;;;6.80;3.80;;;;;;;9.24;nan;101816.41;4988234;28;20030;-62
2022/04/20 01:12:37;;;;;;;7.47;4.03;;;;;;;9.22;nan;101813.13;4981579;28;20069;-61
2022/04/20 01:15:03;;;;;;;7.38;3.53;;;;;;;9.22;nan;101811.28;4979557;28;20033;-61
2022/04/20 01:17:28;;;;;;;6.65;3.58;;;;;;;9.20;nan;101818.69;4982692;28;20027;-61
2022/04/20 01:19:54;;;;;;;7.50;3.88;;;;;;;9.12;nan;101810.91;4986342;28;20030;-61
2022/04/20 01:22:19;;;;;;;6.55;3.90;;;;;;;9.08;nan;101809.69;4987800;28;20026;-60
2022/04/20 01:24:45;;;;;;;8.07;4.10;;;;;;;8.98;nan;101814.69;4981137;28;20041;-61
2022/04/20 01:27:11;;;;;;;6.90;4.38;;;;;;;8.97;nan;101805.81;4983871;28;20030;-61
2022/04/20 01:29:37;;;;;;;5.90;4.25;;;;;;;8.95;nan;101799.88;4982472;28;20135;-61
2022/04/20 01:32:03;;;;;;;5.72;4.13;;;;;;;8.95;nan;101797.19;4984654;28;20034;-61
2022/04/20 01:34:28;;;;;;;7.05;4.30;;;;;;;8.95;nan;101796.38;4983477;28;20033;-61
2022/04/20 01:36:54;;;;;;;5.18;3.70;;;;;;;8.93;nan;101801.94;4985744;28;20046;-61
2022/04/20 01:39:19;;;;;;;8.15;4.20;;;;;;;8.90;nan;101798.88;4984032;28;20089;-61
2022/04/20 01:41:45;;;;;;;8.48;4.70;;;;;;;8.90;nan;101797.00;4981316;28;20061;-62
2022/04/20 01:44:10;;;;;;;9.57;4.60;;;;;;;8.91;nan;101789.81;4983419;28;20057;-60
2022/04/20 01:46:36;;;;;;;10.65;5.00;;;;;;;8.89;nan;101799.91;4983323;28;20033;-61
2022/04/20 01:49:02;;;;;;;9.32;5.20;;;;;;;8.89;nan;101799.91;4985539;28;20026;-61
2022/04/20 01:54:12;;;;;;;11.20;4.85;;;;;;;8.82;nan;101799.94;4983414;28;20117;-61
2022/04/20 01:56:38;;;;;;;7.53;4.22;;;;;;;8.80;nan;101802.00;4983215;28;20134;-60
2022/04/20 01:59:03;;;;;;;8.32;4.80;;;;;;;8.80;nan;101796.66;4981848;28;20029;-60
2022/04/20 02:04:13;;;;;;;7.68;4.40;;;;;;;8.78;nan;101802.19;4980723;28;20044;-62
2022/04/20 02:06:39;;;;;;;6.22;3.70;;;;;;;8.78;nan;101791.50;4985045;28;20030;-61
2022/04/20 02:09:04;;;;;;;6.53;4.40;;;;;;;8.76;nan;101796.22;4982211;28;20173;-60
2022/04/20 02:11:30;;;;;;;10.07;4.38;;;;;;;8.75;nan;101791.91;4979740;28;20386;-61
2022/04/20 02:13:56;;;;;;;5.93;3.97;;;;;;;8.75;nan;101796.44;4981678;28;20030;-61
2022/04/20 02:16:21;;;;;;;7.82;4.13;;;;;;;8.72;nan;101792.34;4980619;28;20627;-62
2022/04/20 02:18:47;;;;;;;6.22;4.03;;;;;;;8.70;nan;101798.94;4979654;28;20831;-61
2022/04/20 02:21:12;;;;;;;7.28;4.03;;;;;;;8.68;nan;101795.66;4981141;28;20038;-61
2022/04/20 02:23:38;;;;;;;7.40;4.20;;;;;;;8.68;nan;101791.13;4983378;28;20038;-61
2022/04/20 02:26:03;;;;;;;5.00;3.88;;;;;;;8.67;nan;101794.84;4982936;28;20039;-60
2022/04/20 02:28:29;;;;;;;6.30;4.07;;;;;;;8.65;nan;101799.56;4980548;28;20046;-61
2022/04/20 02:30:54;;;;;;;7.82;3.80;;;;;;;8.63;nan;101792.78;4984962;28;20038;-61
2022/04/20 02:33:20;;;;;;;5.40;3.80;;;;;;;8.62;nan;101791.97;4979339;28;20033;-61
2022/04/20 02:35:46;;;;;;;7.25;4.20;;;;;;;8.61;nan;101792.97;4982055;28;20022;-60
2022/04/20 02:38:14;;;;;;;6.43;3.72;;;;;;;8.61;nan;101790.31;4979727;28;20471;-61
2022/04/20 02:40:41;;;;;;;7.50;4.13;;;;;;;8.62;nan;101789.31;4979462;28;20030;-61
2022/04/20 02:43:07;;;;;;;4.95;3.33;;;;;;;8.67;nan;101789.50;4978590;28;20025;-61
2022/04/20 02:45:33;;;;;;;5.93;3.45;;;;;;;8.68;nan;101784.97;4981158;28;20089;-61
2022/04/20 02:48:00;;;;;;;8.40;4.45;;;;;;;8.67;nan;101778.81;4981339;28;20730;-62
2022/04/20 02:50:27;;;;;;;5.25;3.30;;;;;;;8.69;nan;101784.75;4980249;28;20030;-62
2022/04/20 02:52:54;;;;;;;6.75;3.42;;;;;;;8.73;nan;101783.28;4979657;28;20027;-62
2022/04/20 02:55:19;;;;;;;6.15;3.63;;;;;;;8.77;nan;101789.03;4981819;28;20117;-61
2022/04/20 02:57:44;;;;;;;4.38;3.25;;;;;;;8.78;nan;101788.00;4980722;28;20164;-61
2022/04/20 03:00:11;;;;;;;5.30;3.30;;;;;;;8.76;nan;101790.06;4981419;28;20088;-60
2022/04/20 03:02:36;;;;;;;5.38;3.58;;;;;;;8.78;nan;101790.66;4979914;28;20034;-61
2022/04/20 03:05:02;;;;;;;4.72;3.10;;;;;;;8.79;nan;101793.13;4981414;28;20357;-61
2022/04/20 03:07:27;;;;;;;6.30;4.03;;;;;;;8.82;nan;101796.44;4982318;28;20100;-61
2022/04/20 03:09:53;;;;;;;5.13;3.75;;;;;;;8.82;nan;101807.13;4980093;28;20034;-60
2022/04/20 03:12:18;;;;;;;6.53;3.72;;;;;;;8.83;nan;101800.75;4981064;28;20400;-60
2022/04/20 03:14:44;;;;;;;5.30;3.80;;;;;;;8.82;nan;101797.25;4980637;28;20034;-59
2022/04/20 03:17:10;;;;;;;5.70;4.00;;;;;;;8.84;nan;101794.38;4980997;28;20022;-60
2022/04/20 03:19:36;;;;;;;5.70;4.35;;;;;;;8.83;nan;101793.56;4983293;28;20049;-60
2022/04/20 03:22:02;;;;;;;6.25;3.72;;;;;;;8.82;nan;101789.25;4979910;28;20094;-60
2022/04/20 03:24:27;;;;;;;7.15;3.63;;;;;;;8.79;nan;101793.13;4981865;28;20041;-60
2022/04/20 03:26:53;;;;;;;5.05;3.55;;;;;;;8.76;nan;101793.56;4979151;28;20567;-60
2022/04/20 03:29:18;;;;;;;6.40;3.75;;;;;;;8.69;nan;101792.75;4981550;28;20034;-60
2022/04/20 03:31:44;;;;;;;7.20;4.18;;;;;;;8.64;nan;101789.09;4979741;28;20031;-60
2022/04/20 03:34:11;;;;;;;6.43;4.22;;;;;;;8.59;nan;101796.88;4981996;28;20026;-60
2022/04/20 03:36:37;;;;;;;8.15;4.63;;;;;;;8.57;nan;101786.41;4978334;28;20188;-60
2022/04/20 03:39:03;;;;;;;6.82;3.55;;;;;;;8.56;nan;101781.28;4981804;28;20022;-60
2022/04/20 03:41:28;;;;;;;5.20;3.47;;;;;;;8.57;nan;101781.06;4977000;28;20045;-60
2022/04/20 03:43:54;;;;;;;5.80;3.28;;;;;;;8.58;nan;101780.03;4981727;28;20026;-60
2022/04/20 03:46:21;;;;;;;7.18;3.55;;;;;;;8.57;nan;101778.41;4980629;28;20042;-60
2022/04/20 03:48:47;;;;;;;5.93;3.80;;;;;;;8.59;nan;101787.03;4978036;28;20029;-60
2022/04/20 03:51:13;;;;;;;6.43;3.67;;;;;;;8.60;nan;101796.69;4981767;28;20031;-60
2022/04/20 03:53:38;;;;;;;5.50;3.78;;;;;;;8.62;nan;101799.16;4987021;28;20167;-60
2022/04/20 03:56:04;;;;;;;5.03;3.63;;;;;;;8.62;nan;101789.31;4983731;28;20734;-60
2022/04/20 03:58:30;;;;;;;6.70;4.38;;;;;;;8.63;nan;101795.47;4984603;28;20049;-60
2022/04/20 04:00:55;;;;;;;6.50;3.60;;;;;;;8.60;nan;101802.03;4984955;28;20018;-60
2022/04/20 04:03:21;;;;;;;6.32;3.40;;;;;;;8.59;nan;101802.22;4985483;28;20507;-60
2022/04/20 04:05:46;;;;;;;7.50;4.00;;;;;;;8.58;nan;101801.41;4983271;28;20026;-60
2022/04/20 04:08:12;;;;;;;6.90;3.67;;;;;;;8.60;nan;101801.19;4985071;28;20137;-60
2022/04/20 04:10:38;;;;;;;4.78;3.22;;;;;;;8.60;nan;101799.34;4986792;28;20034;-60
2022/04/20 04:13:03;;;;;;;5.78;3.95;;;;;;;8.57;nan;101797.09;4985649;28;20037;-60
2022/04/20 04:15:29;;;;;;;6.97;3.53;;;;;;;8.57;nan;101793.63;4984365;28;20038;-60
2022/04/20 04:17:58;;;;;;;6.93;3.70;;;;;;;8.54;nan;101794.84;4984240;28;20026;-60
2022/04/20 04:20:26;;;;;;;7.88;4.68;;;;;;;8.52;nan;101796.91;4985677;28;20084;-60
2022/04/20 04:22:52;;;;;;;5.72;3.58;;;;;;;8.52;nan;101796.09;4987640;28;20369;-60
2022/04/20 04:25:18;;;;;;;7.72;4.15;;;;;;;8.53;nan;101781.72;4985000;28;20464;-60
2022/04/20 04:27:43;;;;;;;6.72;4.53;;;;;;;8.51;nan;101783.78;4984928;28;20042;-60
2022/04/20 04:30:10;;;;;;;6.72;4.70;;;;;;;8.51;nan;101789.13;4982722;28;20038;-60
2022/04/20 04:32:35;;;;;;;8.70;4.80;;;;;;;8.48;nan;101791.19;4988377;28;20514;-60
2022/04/20 04:35:01;;;;;;;5.07;3.60;;;;;;;8.48;nan;101795.69;4979225;28;20042;-60
2022/04/20 04:37:27;;;;;;;9.00;4.20;;;;;;;8.47;nan;101794.06;4986665;28;20374;-60
2022/04/20 04:39:53;;;;;;;8.80;4.32;;;;;;;8.46;nan;101795.91;4989242;28;20084;-60
2022/04/20 04:42:19;;;;;;;8.48;4.80;;;;;;;8.47;nan;101794.88;4981294;28;20115;-60
2022/04/20 04:44:44;;;;;;;7.75;4.22;;;;;;;8.46;nan;101797.75;4991135;28;20038;-60
2022/04/20 04:49:55;;;;;;;8.10;4.30;;;;;;;8.48;nan;101796.53;4985958;28;20096;-60
2022/04/20 04:52:20;;;;;;;10.40;4.88;;;;;;;8.47;nan;101796.72;4984901;28;20042;-60
2022/04/20 04:54:46;;;;;;;7.28;4.22;;;;;;;8.46;nan;101800.44;4988309;28;20026;-60
2022/04/20 04:57:12;;;;;;;6.32;4.15;;;;;;;8.47;nan;101796.72;4982882;28;20022;-60
2022/04/20 04:59:39;;;;;;;5.97;3.85;;;;;;;8.48;nan;101795.69;4986173;28;20030;-60
2022/04/20 05:02:05;;;;;;;7.65;3.90;;;;;;;8.49;nan;101792.00;4982274;28;20069;-60
2022/04/20 05:04:31;;;;;;;7.03;4.28;;;;;;;8.47;nan;101794.06;4984801;28;20030;-59
2022/04/20 05:06:57;;;;;;;6.57;4.22;;;;;;;8.46;nan;101792.41;4982787;28;20034;-60
2022/04/20 05:09:22;;;;;;;8.75;4.15;;;;;;;8.44;nan;101789.13;4987686;28;20057;-58
2022/04/20 05:11:51;;;;;;;6.45;4.28;;;;;;;8.44;nan;101792.63;4986774;28;20057;-59
2022/04/20 05:14:17;;;;;;;6.85;4.05;;;;;;;8.46;nan;101793.25;4984356;28;20026;-60
2022/04/20 05:16:43;;;;;;;6.88;4.32;;;;;;;8.48;nan;101790.34;4984384;28;20022;-60
2022/04/20 05:19:09;;;;;;;8.88;4.95;;;;;;;8.50;nan;101792.81;4988593;28;20092;-60
2022/04/20 05:21:34;;;;;;;10.15;4.68;;;;;;;8.50;nan;101790.97;4992107;28;20054;-59
2022/04/20 05:24:00;;;;;;;9.73;4.30;;;;;;;8.51;nan;101794.47;4984785;28;20065;-60
2022/04/20 05:26:26;;;;;;;6.88;4.20;;;;;;;8.51;nan;101787.25;4987547;28;20030;-60
2022/04/20 05:28:52;;;;;;;6.72;4.20;;;;;;;8.50;nan;101785.63;4988802;28;20030;-60
2022/04/20 05:31:18;;;;;;;6.97;3.78;;;;;;;8.48;nan;101788.50;4989744;28;20076;-60
2022/04/20 05:33:43;;;;;;;5.55;3.53;;;;;;;8.50;nan;101787.47;4986511;28;20511;-60
2022/04/20 05:36:09;;;;;;;9.35;3.58;;;;;;;8.53;nan;101785.19;4984853;28;20026;-60
2022/04/20 05:44:03;;;;;;;7.18;3.97;;;;;;;8.53;nan;101785.19;4981991;28;20053;-60
2022/04/20 05:46:28;;;;;;;5.25;3.33;;;;;;;8.52;nan;101786.22;4990407;28;20077;-60
2022/04/20 05:48:54;;;;;;;8.27;3.70;;;;;;;8.53;nan;101787.06;4986221;28;20042;-60
2022/04/20 05:51:19;;;;;;;4.43;3.03;;;;;;;8.53;nan;101787.06;4984294;28;20077;-60
2022/04/20 05:53:45;;;;;;;7.03;3.28;;;;;;;8.51;nan;101784.59;4991565;28;20030;-60
2022/04/20 05:56:10;;;;;;;9.65;3.08;;;;;;;8.51;nan;101792.59;4982222;28;20050;-60
2022/04/20 05:58:36;;;;;;;5.45;3.55;;;;;;;8.55;nan;101791.16;4984750;28;20022;-60
2022/04/20 06:01:01;;;;;;;4.97;3.55;;;;;;;8.55;nan;101788.47;4983970;28;20022;-60
2022/04/20 06:03:27;;;;;;;6.63;3.47;;;;;;;8.54;nan;101784.16;4985934;28;20022;-60
2022/04/20 06:05:53;;;;;;;6.07;4.30;;;;;;;8.56;nan;101779.44;4987685;28;20372;-60
2022/04/20 06:08:19;;;;;;;6.55;3.38;;;;;;;8.54;nan;101784.16;4983344;28;20488;-60
2022/04/20 06:10:46;;;;;;;7.38;2.85;;;;;;;8.53;nan;101777.19;4985125;28;20025;-60
2022/04/20 06:13:12;;;;;;;5.63;3.42;;;;;;;8.50;nan;101780.28;4981134;28;20035;-60
2022/04/20 06:15:38;;;;;;;7.97;3.53;;;;;;;8.48;nan;101785.84;4990744;28;20058;-60
2022/04/20 06:18:04;;;;;;;6.47;3.55;;;;;;;8.52;nan;101786.22;4985485;28;20101;-60
2022/04/20 06:20:29;;;;;;;9.93;3.25;;;;;;;8.57;nan;101782.94;4987672;28;20034;-60
2022/04/20 06:22:55;;;;;;;7.90;3.20;;;;;;;8.58;nan;101780.03;4989528;28;20666;-60
2022/04/20 06:25:20;;;;;;;5.30;2.85;;;;;;;8.57;nan;101782.94;4985376;28;20022;-60
2022/04/20 06:27:46;;;;;;;5.60;3.15;;;;;;;8.54;nan;101786.84;4978366;28;20093;-60
2022/04/20 06:30:12;;;;;;;5.90;3.55;;;;;;;8.56;nan;101787.44;4979879;28;20030;-60
2022/04/20 06:32:37;;;;;;;7.85;3.22;;;;;;;8.60;nan;101782.50;4983851;28;20042;-60
2022/04/20 06:35:03;;;;;;;6.47;4.13;;;;;;;8.62;nan;101777.78;4981373;28;20044;-60
2022/04/20 06:37:29;;;;;;;8.00;3.75;;;;;;;8.63;nan;101782.09;4984197;28;20034;-60
2022/04/20 06:39:56;;;;;;;7.18;3.88;;;;;;;8.64;nan;101789.91;4982346;28;20030;-60
2022/04/20 06:42:22;;;;;;;6.15;3.45;;;;;;;8.66;nan;101790.53;4984191;28;20032;-60
2022/04/20 06:44:48;;;;;;;7.50;3.33;;;;;;;8.73;nan;101787.81;4981837;28;20036;-60
2022/04/20 06:47:13;;;;;;;7.05;3.28;;;;;;;8.79;nan;101784.28;4983129;28;20026;-60
2022/04/20 06:49:39;;;;;;;5.78;3.40;;;;;;;8.86;nan;101787.78;4979510;28;21631;-60
2022/04/20 07:00:17;;;;;;;6.78;3.20;;;;;;;8.99;nan;101787.75;4982527;28;20038;-60
2022/04/20 07:02:43;;;;;;;6.40;3.47;;;;;;;9.03;nan;101793.47;4979729;28;20025;-60
2022/04/20 07:05:12;;;;;;;6.97;3.20;;;;;;;9.05;nan;101794.91;4983374;28;20042;-60
2022/04/20 07:07:37;;;;;;;7.88;3.17;;;;;;;9.08;nan;101805.16;4984262;28;20038;-60
2022/04/20 07:10:04;;;;;;;8.45;2.88;;;;;;;9.09;nan;101803.31;4982792;28;20061;-60
2022/04/20 07:12:30;;;;;;;5.82;3.33;;;;;;;9.08;nan;101809.69;4981224;28;20738;-60
2022/04/20 07:14:55;;;;;;;7.03;3.35;;;;;;;9.09;nan;101797.97;4980746;28;20046;-60
2022/04/20 07:17:21;;;;;;;6.15;3.20;;;;;;;9.12;nan;101808.22;4983353;28;20049;-60
2022/04/20 07:19:46;;;;;;;7.43;3.20;;;;;;;9.15;nan;101810.47;4983053;28;20704;-60
2022/04/20 07:22:12;;;;;;;5.13;2.90;;;;;;;9.17;nan;101810.28;4982852;28;20559;-60
2022/04/20 07:24:37;;;;;;;6.82;3.08;;;;;;;9.19;nan;101801.00;4985759;28;20672;-60
2022/04/20 07:27:03;;;;;;;6.03;3.60;;;;;;;9.23;nan;101799.53;4983561;28;20029;-60
2022/04/20 07:29:29;;;;;;;5.20;3.13;;;;;;;9.26;nan;101796.44;4986264;28;20108;-60
2022/04/20 07:31:54;;;;;;;5.78;3.30;;;;;;;9.27;nan;101794.59;4983264;28;20563;-60
2022/04/20 07:34:20;;;;;;;5.80;3.88;;;;;;;9.30;nan;101800.31;4982572;28;20041;-59
2022/04/20 07:36:47;;;;;;;8.90;3.75;;;;;;;9.30;nan;101800.31;4986823;28;20125;-60
2022/04/20 07:39:12;;;;;;;7.03;3.22;;;;;;;9.34;nan;101798.88;4985777;28;20532;-60
2022/04/20 07:41:39;;;;;;;6.40;3.58;;;;;;;9.35;nan;101797.84;4988022;28;20255;-60
2022/04/20 07:44:05;;;;;;;5.57;3.50;;;;;;;9.35;nan;101800.53;4983640;28;20081;-60
2022/04/20 07:46:31;;;;;;;7.65;3.60;;;;;;;9.39;nan;101793.72;4986553;28;20030;-60
2022/04/20 07:48:56;;;;;;;6.40;3.60;;;;;;;9.43;nan;101795.94;4986706;28;20085;-60
2022/04/20 07:51:22;;;;;;;7.20;3.70;;;;;;;9.46;nan;101790.97;4988915;28;20032;-60
2022/04/20 07:53:47;;;;;;;6.13;3.53;;;;;;;9.46;nan;101776.78;4981069;28;20022;-60
2022/04/20 07:56:13;;;;;;;6.63;3.30;;;;;;;9.48;nan;101769.34;4983779;28;20480;-60
2022/04/20 07:58:39;;;;;;;8.98;4.25;;;;;;;9.45;nan;101761.78;4983899;28;20054;-60
2022/04/20 08:01:04;;;;;;;7.53;3.60;;;;;;;9.45;nan;101753.75;4984632;28;20106;-60
2022/04/20 08:03:30;;;;;;;9.05;4.05;;;;;;;9.43;nan;101739.78;4985606;28;20045;-60
2022/04/20 08:05:56;;;;;;;8.98;3.70;;;;;;;9.42;nan;101733.59;4986503;28;20062;-60
2022/04/20 08:08:23;;;;;;;7.18;4.18;;;;;;;9.39;nan;101734.84;4985392;28;20476;-60
2022/04/20 08:10:49;;;;;;;7.30;4.13;;;;;;;9.35;nan;101739.00;4986995;28;20696;-59
2022/04/20 08:16:00;;;;;;;6.78;4.18;;;;;;;9.34;nan;101732.03;4985137;28;20044;-60
2022/04/20 08:18:26;;;;;;;7.30;4.63;;;;;;;9.36;nan;101737.97;4985825;28;20026;-60
2022/04/20 08:20:52;;;;;;;6.60;4.35;;;;;;;9.36;nan;101743.31;4982191;28;20388;-60
2022/04/20 08:23:19;;;;;;;7.03;4.25;;;;;;;9.40;nan;101757.06;4985205;28;20037;-60
2022/04/20 08:25:45;;;;;;;9.90;4.55;;;;;;;9.47;nan;101757.84;4984369;28;20029;-61
2022/04/20 08:28:11;;;;;;;9.75;4.35;;;;;;;9.50;nan;101754.72;4983647;28;20039;-60
2022/04/20 08:30:39;;;;;;;6.55;4.03;;;;;;;9.53;nan;101750.81;4986847;28;20537;-61
2022/04/20 08:33:07;;;;;;;5.63;4.07;;;;;;;9.54;nan;101747.94;4984978;28;20056;-61
2022/04/20 08:35:36;;;;;;;5.32;4.05;;;;;;;9.55;nan;101743.41;4983013;28;20042;-61
2022/04/20 08:38:02;;;;;;;7.97;4.75;;;;;;;9.63;nan;101746.63;4984935;28;20034;-60
2022/04/20 08:40:29;;;;;;;5.50;4.30;;;;;;;9.68;nan;101744.09;4984362;28;20068;-60
2022/04/20 08:42:59;;;;;;;7.50;4.28;;;;;;;9.68;nan;101733.41;4986112;28;20027;-60
2022/04/20 08:45:27;;;;;;;8.70;4.55;;;;;;;9.65;nan;101735.69;4983985;28;20466;-60
2022/04/20 08:47:57;;;;;;;7.00;3.97;;;;;;;9.69;nan;101731.53;4986538;28;20053;-60
2022/04/20 08:50:24;;;;;;;6.53;4.57;;;;;;;9.73;nan;101735.44;4986684;28;20027;-60
2022/04/20 08:52:51;;;;;;;6.70;4.20;;;;;;;9.73;nan;101730.09;4983219;28;20034;-60
2022/04/20 08:55:18;;;;;;;8.32;4.45;;;;;;;9.77;nan;101720.56;4982665;28;20863;-61
2022/04/20 08:57:46;;;;;;;9.65;4.43;;;;;;;9.83;nan;101725.03;4985803;28;20511;-60
2022/04/20 09:00:20;;;;;;;5.78;4.32;;;;;;;9.83;nan;101722.38;4984412;28;20030;-60
2022/04/20 09:02:49;;;;;;;9.77;4.85;;;;;;;9.84;nan;101718.66;4982742;28;20485;-60
2022/04/20 09:05:14;;;;;;;11.13;4.82;;;;;;;9.86;nan;101724.59;4983946;28;20038;-60
2022/04/20 09:07:40;;;;;;;9.13;4.82;;;;;;;9.89;nan;101713.47;4985551;28;20735;-60
2022/04/20 09:10:06;;;;;;;10.70;4.53;;;;;;;9.93;nan;101713.84;4968745;28;20026;-62
2022/04/20 09:12:32;;;;;;;8.30;4.18;;;;;;;9.99;nan;101713.78;4985067;28;20726;-60
2022/04/20 09:15:00;;;;;;;9.52;4.22;;;;;;;10.02;nan;101715.19;4986018;28;20049;-61
2022/04/20 09:17:26;;;;;;;10.48;4.30;;;;;;;10.09;nan;101720.50;4983041;28;20515;-61
2022/04/20 09:19:56;;;;;;;6.35;3.80;;;;;;;10.18;nan;101713.81;4983295;28;20026;-61
2022/04/20 09:22:25;;;;;;;7.88;4.00;;;;;;;10.24;nan;101715.66;4984454;28;20521;-61
2022/04/20 09:25:08;;;;;;;7.40;4.38;;;;;;;10.24;nan;101715.66;4986227;28;20105;-61
2022/04/20 09:27:35;;;;;;;4.68;3.75;;;;;;;10.32;nan;101722.56;4982459;28;20026;-62
2022/04/20 09:30:02;;;;;;;8.15;3.83;;;;;;;10.36;nan;101724.56;4986566;28;20947;-61
2022/04/20 09:32:34;;;;;;;7.10;3.70;;;;;;;10.44;nan;101712.75;4986548;28;20033;-61
2022/04/20 09:35:03;;;;;;;7.63;4.03;;;;;;;10.49;nan;101711.03;4985175;28;20419;-61
2022/04/20 09:37:29;;;;;;;6.95;4.07;;;;;;;10.55;nan;101712.81;4984413;28;20030;-61
2022/04/20 09:39:55;;;;;;;8.88;4.10;;;;;;;10.58;nan;101704.31;4984149;28;20041;-61
2022/04/20 09:42:21;;;;;;;7.40;4.22;;;;;;;10.64;nan;101699.94;4985855;28;20058;-61
2022/04/20 09:44:54;;;;;;;8.20;3.60;;;;;;;10.71;nan;101699.84;4986743;28;20514;-61
2022/04/20 09:50:22;;;;;;;8.07;3.45;;;;;;;10.89;nan;101675.69;4985370;28;20197;-62
2022/04/20 09:52:50;;;;;;;5.95;3.65;;;;;;;11.02;nan;101680.88;4984923;28;20052;-61
2022/04/20 09:55:26;;;;;;;7.65;3.70;;;;;;;11.06;nan;101676.69;4981816;28;20041;-61
2022/04/20 09:57:53;;;;;;;6.90;3.70;;;;;;;11.15;nan;101680.69;4988527;28;20063;-60
2022/04/20 10:00:20;;;;;;;5.88;3.42;;;;;;;11.18;nan;101680.22;4981317;28;20023;-62
2022/04/20 10:02:55;;;;;;;7.07;3.83;;;;;;;11.19;nan;101681.84;4986480;28;20106;-62
2022/04/20 10:05:23;;;;;;;6.38;3.42;;;;;;;11.29;nan;101675.09;4985170;28;20369;-62
2022/04/20 10:07:51;;;;;;;6.43;3.35;;;;;;;11.36;nan;101670.47;4986420;28;20029;-61
2022/04/20 10:10:17;;;;;;;7.43;3.78;;;;;;;11.39;nan;101661.94;4985864;28;20503;-61
2022/04/20 10:12:44;;;;;;;7.35;3.70;;;;;;;11.43;nan;101657.75;4985910;28;20026;-61
2022/04/20 10:17:56;;;;;;;7.60;3.83;;;;;;;11.49;nan;101648.78;4982028;28;20527;-62
2022/04/20 10:20:25;;;;;;;7.15;3.50;;;;;;;11.54;nan;101650.78;4980364;28;20546;-62
2022/04/20 10:22:51;;;;;;;5.07;3.00;;;;;;;11.59;nan;101638.28;4985732;28;20472;-61
2022/04/20 10:25:17;;;;;;;7.93;3.22;;;;;;;11.66;nan;101648.88;4978930;28;20041;-62
2022/04/20 10:27:56;;;;;;;7.72;3.20;;;;;;;11.69;nan;101646.56;4978247;28;20034;-62
2022/04/20 10:30:32;;;;;;;5.47;2.65;;;;;;;11.80;nan;101643.09;4976004;28;20049;-62
2022/04/20 10:33:16;;;;;;;7.47;3.25;;;;;;;11.85;nan;101642.41;4979171;28;20121;-62
2022/04/20 10:36:00;;;;;;;5.03;2.87;;;;;;;11.92;nan;101645.78;4981564;28;20038;-62
2022/04/20 10:38:30;;;;;;;6.97;3.38;;;;;;;12.04;nan;101635.84;4981753;28;20026;-62
2022/04/20 10:41:07;;;;;;;6.30;3.13;;;;;;;12.13;nan;101624.72;4982235;28;20023;-59
2022/04/20 10:43:35;;;;;;;7.00;3.67;;;;;;;12.26;nan;101622.59;4976434;28;20956;-59
2022/04/20 10:46:41;;;;;;;8.50;3.00;;;;;;;12.31;nan;101622.69;4982044;28;20109;-59
2022/04/20 10:49:35;;;;;;;4.60;3.00;;;;;;;12.40;nan;101621.28;4978505;28;20404;-60
2022/04/20 10:52:24;;;;;;;6.53;3.13;;;;;;;12.53;nan;101620.16;4979527;28;20649;-59
2022/04/20 10:54:51;;;;;;;2.88;2.58;;;;;;;12.68;nan;101619.63;4982023;28;20054;-59
2022/04/20 10:57:17;;;;;;;8.40;3.13;;;;;;;12.70;nan;101614.81;4980326;28;20022;-59
2022/04/20 10:59:43;;;;;;;4.28;2.53;;;;;;;12.69;nan;101607.81;4989385;28;20022;-59
2022/04/20 11:02:11;;;;;;;10.80;3.30;;;;;;;12.70;nan;101604.06;4987074;28;20384;-59
2022/04/20 11:04:48;;;;;;;4.43;3.03;;;;;;;12.75;nan;101611.41;4987299;28;20022;-59
2022/04/20 11:07:23;;;;;;;5.88;2.85;;;;;;;12.85;nan;101598.16;4986839;28;20057;-60
2022/04/20 11:09:49;;;;;;;;;;;;;;;12.88;nan;101597.66;4991078;28;20049;-59
2022/04/20 11:21:03;;;;;;;;;;;;;;;13.79;nan;101593.75;4990873;28;20149;-59
2022/04/20 11:24:06;;;;;;;6.95;2.70;;;;;;;13.87;nan;101570.97;4988273;28;20059;-59
2022/04/20 11:26:54;;;;;;;4.50;2.15;;;;;;;14.05;nan;101572.53;4983120;28;20026;-59
2022/04/20 11:29:25;;;;;;;3.78;1.98;;;;;;;14.23;nan;101576.78;4985649;28;20074;-59
2022/04/20 11:31:57;;;;;;;4.30;2.60;;;;;;;14.37;nan;101570.75;4989273;28;20026;-60
2022/04/20 11:34:23;;;;;;;4.40;2.42;;;;;;;14.43;nan;101555.44;4989819;28;20038;-60
2022/04/20 11:36:54;;;;;;;9.13;2.70;;;;;;;14.46;nan;101558.47;4987713;28;20026;-60
2022/04/20 11:39:22;;;;;;;3.78;2.63;;;;;;;14.47;nan;101559.28;4989449;28;20030;-59
2022/04/20 11:41:50;;;;;;;3.50;2.20;;;;;;;14.48;nan;101559.03;4989471;28;20116;-59
2022/04/20 11:44:36;;;;;;;6.35;2.50;;;;;;;14.49;nan;101554.44;4986312;28;20026;-59
2022/04/20 11:47:12;;;;;;;4.68;2.40;;;;;;;14.55;nan;101560.72;4988114;28;20583;-59
2022/04/20 11:49:43;;;;;;;7.25;2.60;;;;;;;14.57;nan;101545.09;4987679;28;20033;-60
2022/04/20 11:52:11;;;;;;;3.72;2.22;;;;;;;14.63;nan;101544.88;4986823;28;20034;-59
2022/04/20 11:54:38;;;;;;;5.03;2.28;;;;;;;14.72;nan;101546.06;4986645;28;20100;-59
2022/04/20 11:57:09;;;;;;;4.78;2.58;;;;;;;14.84;nan;101534.28;4982793;28;20027;-59
2022/04/20 11:59:48;;;;;;;8.43;2.53;;;;;;;15.06;nan;101534.97;4984322;28;20068;-59
2022/04/20 12:02:16;;;;;;;7.82;2.78;;;;;;;15.25;nan;101546.19;4987471;28;20030;-59
2022/04/20 12:04:46;;;;;;;5.40;2.40;;;;;;;15.37;nan;101528.72;4988662;28;20512;-60
2022/04/20 12:07:12;;;;;;;4.72;1.90;;;;;;;15.45;nan;101530.13;4986976;28;20048;-59
2022/04/20 12:09:42;;;;;;;3.72;1.92;;;;;;;15.61;nan;101534.53;4989471;28;20194;-59
2022/04/20 12:12:10;;;;;;;3.42;2.05;;;;;;;15.82;nan;101521.16;4983550;28;20030;-60
2022/04/20 12:14:38;;;;;;;5.47;2.22;;;;;;;16.06;nan;101529.63;4984718;28;20073;-59
2022/04/20 12:17:13;;;;;;;5.70;2.20;;;;;;;16.25;nan;101512.63;4985455;28;20481;-59
2022/04/20 12:19:42;;;;;;;4.85;2.22;;;;;;;16.42;nan;101517.81;4983936;28;20042;-61
2022/04/20 12:22:09;;;;;;;3.00;2.20;;;;;;;16.51;nan;101521.59;4982359;28;20030;-60
2022/04/20 12:24:37;;;;;;;4.85;2.08;;;;;;;16.59;nan;101521.06;4982315;28;20057;-60
2022/04/20 12:27:04;;;;;;;3.85;1.88;;;;;;;16.54;nan;101526.50;4984959;28;20042;-59
2022/04/20 12:29:34;;;;;;;3.25;1.83;;;;;;;16.50;nan;101525.38;4981555;28;20038;-59